createdAt,value
2022-12-28T00:01:19.607Z,1.00
2022-12-28T00:03:47.226Z,0.98
2022-12-28T00:06:14.778Z,2.03
2022-12-28T00:08:41.424Z,1.70
2022-12-28T00:11:25.328Z,1.70
2022-12-28T00:13:59.033Z,0.60
2022-12-28T00:16:37.135Z,1.40
2022-12-28T00:19:06.570Z,0.88
2022-12-28T00:21:33.681Z,0.77
2022-12-28T00:24:01.580Z,1.33
2022-12-28T00:26:30.916Z,0.70
2022-12-28T00:29:04.180Z,0.55
2022-12-28T00:31:35.387Z,0.40
2022-12-28T00:34:02.932Z,0.35
2022-12-28T00:37:07.539Z,0.43
2022-12-28T00:39:16.806Z,0.52
2022-12-28T00:41:43.788Z,0.70
2022-12-28T00:44:11.030Z,0.88
2022-12-28T00:46:37.597Z,0.50
2022-12-28T00:49:04.481Z,0.40
2022-12-28T00:51:31.088Z,0.45
2022-12-28T00:53:57.708Z,0.43
2022-12-28T00:56:24.474Z,0.80
2022-12-28T00:58:55.481Z,1.13
2022-12-28T01:01:23.861Z,0.93
2022-12-28T01:03:50.709Z,0.10
2022-12-28T01:06:19.677Z,0.30
2022-12-28T01:08:46.565Z,0.45
2022-12-28T01:11:24.752Z,0.50
2022-12-28T01:13:53.118Z,0.55
2022-12-28T01:16:24.209Z,1.00
2022-12-28T01:18:56.428Z,0.15
2022-12-28T01:21:25.084Z,1.35
2022-12-28T01:23:55.241Z,0.30
2022-12-28T01:26:22.109Z,1.10
2022-12-28T01:28:48.654Z,1.02
2022-12-28T01:31:17.473Z,0.25
2022-12-28T01:33:44.725Z,0.20
2022-12-28T01:36:26.042Z,0.20
2022-12-28T01:38:54.520Z,0.70
2022-12-28T01:41:21.905Z,0.60
2022-12-28T01:44:10.192Z,0.28
2022-12-28T01:46:55.129Z,0.30
2022-12-28T01:49:30.312Z,0.68
2022-12-28T01:52:14.241Z,0.30
2022-12-28T01:54:56.208Z,0.30
2022-12-28T01:57:27.606Z,0.38
2022-12-28T02:00:00.260Z,0.68
2022-12-28T02:02:29.156Z,0.88
2022-12-28T02:04:57.525Z,0.15
2022-12-28T02:07:37.865Z,0.30
2022-12-28T02:10:43.280Z,0.35
2022-12-28T02:12:52.137Z,0.60
2022-12-28T02:15:23.064Z,0.08
2022-12-28T02:17:50.531Z,0.43
2022-12-28T02:20:17.984Z,0.30
2022-12-28T02:22:50.479Z,0.40
2022-12-28T02:25:37.870Z,0.20
2022-12-28T02:28:16.265Z,0.77
2022-12-28T02:30:51.235Z,0.57
2022-12-28T02:33:27.221Z,0.60
2022-12-28T02:36:18.712Z,0.30
2022-12-28T02:38:55.645Z,0.30
2022-12-28T02:41:25.157Z,0.10
2022-12-28T02:43:55.758Z,1.02
2022-12-28T02:46:51.778Z,0.57
2022-12-28T02:49:47.408Z,0.20
2022-12-28T02:52:44.584Z,0.68
2022-12-28T02:55:41.961Z,0.10
2022-12-28T02:58:40.737Z,0.65
2022-12-28T03:01:38.305Z,0.22
2022-12-28T03:04:18.208Z,0.30
2022-12-28T03:07:30.906Z,0.45
2022-12-28T03:10:10.807Z,0.90
2022-12-28T03:12:53.911Z,0.68
2022-12-28T03:15:30.703Z,0.10
2022-12-28T03:18:37.821Z,0.28
2022-12-28T03:21:28.719Z,0.35
2022-12-28T03:24:15.915Z,0.30
2022-12-28T03:27:06.552Z,0.25
2022-12-28T03:29:59.301Z,0.05
2022-12-28T03:32:26.038Z,0.13
2022-12-28T03:34:52.647Z,0.28
2022-12-28T03:37:25.722Z,0.30
2022-12-28T03:40:27.719Z,0.00
2022-12-28T03:43:17.782Z,0.88
2022-12-28T03:45:54.097Z,0.32
2022-12-28T03:48:21.849Z,0.85
2022-12-28T03:50:50.283Z,0.22
2022-12-28T03:53:19.601Z,0.08
2022-12-28T03:55:46.234Z,0.43
2022-12-28T03:58:12.808Z,0.43
2022-12-28T04:00:39.423Z,0.20
2022-12-28T04:03:06.044Z,0.95
2022-12-28T04:05:32.932Z,0.70
2022-12-28T04:07:59.613Z,0.10
2022-12-28T04:10:26.220Z,0.43
2022-12-28T04:12:56.774Z,0.15
2022-12-28T04:15:23.825Z,0.55
2022-12-28T04:17:50.461Z,0.80
2022-12-28T04:20:17.111Z,0.08
2022-12-28T04:22:44.458Z,0.10
2022-12-28T04:25:11.036Z,1.13
2022-12-28T04:27:37.644Z,0.00
2022-12-28T04:30:05.113Z,0.00
2022-12-28T04:32:31.678Z,0.45
2022-12-28T04:34:58.199Z,0.22
2022-12-28T04:37:24.789Z,0.10
2022-12-28T04:39:55.092Z,0.30
2022-12-28T04:42:23.489Z,1.17
2022-12-28T04:44:50.006Z,0.70
2022-12-28T04:47:16.578Z,0.22
2022-12-28T04:49:43.210Z,0.10
2022-12-28T04:52:09.794Z,0.40
2022-12-28T04:54:36.419Z,0.68
2022-12-28T04:57:03.040Z,0.38
2022-12-28T04:59:29.637Z,0.47
2022-12-28T05:01:56.266Z,0.30
2022-12-28T05:04:24.012Z,0.32
2022-12-28T05:06:50.619Z,0.32
2022-12-28T05:09:19.307Z,0.10
2022-12-28T05:11:45.957Z,0.20
2022-12-28T05:14:12.621Z,0.28
2022-12-28T05:16:39.268Z,0.40
2022-12-28T05:19:05.900Z,0.38
2022-12-28T05:21:32.545Z,0.28
2022-12-28T05:23:59.221Z,0.73
2022-12-28T05:26:28.892Z,0.57
2022-12-28T05:28:56.278Z,0.52
2022-12-28T05:31:23.638Z,0.77
2022-12-28T05:33:50.703Z,0.30
2022-12-28T05:36:20.250Z,0.57
2022-12-28T05:38:47.838Z,0.98
2022-12-28T05:41:23.795Z,0.60
2022-12-28T05:43:51.284Z,0.13
2022-12-28T05:46:20.811Z,0.00
2022-12-28T05:48:47.578Z,0.20
2022-12-28T05:51:17.655Z,0.28
2022-12-28T05:53:44.626Z,0.05
2022-12-28T05:56:15.044Z,0.20
2022-12-28T05:58:43.634Z,0.43
2022-12-28T06:01:13.485Z,0.20
2022-12-28T06:03:40.828Z,0.40
2022-12-28T06:06:13.749Z,0.45
2022-12-28T06:08:41.424Z,0.00
2022-12-28T06:11:10.381Z,0.10
2022-12-28T06:13:37.565Z,0.70
2022-12-28T06:16:12.467Z,0.28
2022-12-28T06:18:39.826Z,0.75
2022-12-28T06:21:15.649Z,0.00
2022-12-28T06:23:42.464Z,0.30
2022-12-28T06:26:10.712Z,0.38
2022-12-28T06:28:37.736Z,0.63
2022-12-28T06:31:11.355Z,0.35
2022-12-28T06:33:38.150Z,0.50
2022-12-28T06:36:05.267Z,0.15
2022-12-28T06:38:34.253Z,0.30
2022-12-28T06:41:15.333Z,0.20
2022-12-28T06:43:44.227Z,0.17
2022-12-28T06:46:12.041Z,0.75
2022-12-28T06:48:40.916Z,0.20
2022-12-28T06:51:12.671Z,0.22
2022-12-28T06:53:39.878Z,0.45
2022-12-28T06:56:15.095Z,0.30
2022-12-28T06:58:42.288Z,0.10
2022-12-28T07:01:23.744Z,0.30
2022-12-28T07:03:52.898Z,0.38
2022-12-28T07:06:23.042Z,0.10
2022-12-28T07:08:51.045Z,0.20
2022-12-28T07:11:20.762Z,0.50
2022-12-28T07:13:47.881Z,0.15
2022-12-28T07:16:19.837Z,0.35
2022-12-28T07:18:47.144Z,0.43
2022-12-28T07:21:16.640Z,0.10
2022-12-28T07:23:43.405Z,0.45
2022-12-28T07:26:12.767Z,0.32
2022-12-28T07:28:41.164Z,0.10
2022-12-28T07:31:09.437Z,0.45
2022-12-28T07:33:36.826Z,0.32
2022-12-28T07:36:04.653Z,1.17
2022-12-28T07:38:31.531Z,0.70
2022-12-28T07:41:21.349Z,0.25
2022-12-28T07:43:48.390Z,0.43
2022-12-28T07:46:17.841Z,0.35
2022-12-28T07:48:45.403Z,0.05
2022-12-28T07:51:16.996Z,0.20
2022-12-28T07:53:45.523Z,0.40
2022-12-28T07:56:12.768Z,0.43
2022-12-28T08:01:07.990Z,0.28
2022-12-28T08:03:35.219Z,0.30
2022-12-28T08:06:13.959Z,0.47
2022-12-28T08:08:43.060Z,0.47
2022-12-28T08:11:15.833Z,0.30
2022-12-28T08:13:44.913Z,0.40
2022-12-28T08:16:13.212Z,0.32
2022-12-28T08:18:40.324Z,0.80
2022-12-28T08:21:12.372Z,0.22
2022-12-28T08:23:38.973Z,0.28
2022-12-28T08:26:18.769Z,0.60
2022-12-28T08:28:46.685Z,0.40
2022-12-28T08:31:24.843Z,0.55
2022-12-28T08:33:53.264Z,0.30
2022-12-28T08:36:19.891Z,0.30
2022-12-28T08:38:47.354Z,0.68
2022-12-28T08:41:19.771Z,0.65
2022-12-28T08:43:47.051Z,0.45
2022-12-28T08:46:19.210Z,0.38
2022-12-28T08:48:47.495Z,0.22
2022-12-28T08:51:22.530Z,0.30
2022-12-28T08:53:49.997Z,0.30
2022-12-28T08:56:20.096Z,0.47
2022-12-28T08:58:47.917Z,0.43
2022-12-28T09:01:15.809Z,0.30
2022-12-28T09:03:44.904Z,0.55
2022-12-28T09:06:17.058Z,0.28
2022-12-28T09:08:51.388Z,1.00
2022-12-28T09:11:31.214Z,1.02
2022-12-28T09:13:58.144Z,1.20
2022-12-28T09:16:27.857Z,0.73
2022-12-28T09:18:56.491Z,0.93
2022-12-28T09:21:24.640Z,1.13
2022-12-28T09:23:51.464Z,0.70
2022-12-28T09:26:23.462Z,1.02
2022-12-28T09:28:55.050Z,1.80
2022-12-28T09:31:23.971Z,1.52
2022-12-28T09:36:47.127Z,1.58
2022-12-28T09:39:19.789Z,0.85
2022-12-28T09:42:16.336Z,1.58
2022-12-28T09:45:07.121Z,1.50
2022-12-28T09:47:51.811Z,1.50
2022-12-28T09:50:18.596Z,1.63
2022-12-28T09:53:06.739Z,1.25
2022-12-28T09:55:35.873Z,1.17
2022-12-28T09:58:05.240Z,1.38
2022-12-28T10:00:42.393Z,0.68
2022-12-28T10:03:20.780Z,1.92
2022-12-28T10:05:49.673Z,1.42
2022-12-28T10:08:19.263Z,1.52
2022-12-28T10:10:49.230Z,1.65
2022-12-28T10:16:20.059Z,0.95
2022-12-28T10:18:48.291Z,0.82
2022-12-28T10:21:18.489Z,0.88
2022-12-28T10:24:29.288Z,1.17
2022-12-28T10:26:38.010Z,0.90
2022-12-28T10:29:04.600Z,0.82
2022-12-28T10:31:38.391Z,1.40
2022-12-28T10:34:22.868Z,1.05
2022-12-28T10:36:50.372Z,1.30
2022-12-28T10:39:25.658Z,2.08
2022-12-28T10:41:53.162Z,1.02
2022-12-28T10:44:40.014Z,1.40
2022-12-28T10:47:19.452Z,1.10
2022-12-28T10:50:18.491Z,1.17
2022-12-28T10:52:38.258Z,1.08
2022-12-28T10:55:29.023Z,0.60
2022-12-28T10:58:27.883Z,1.85
2022-12-28T11:00:45.643Z,1.38
2022-12-28T11:03:19.028Z,1.10
2022-12-28T11:05:56.460Z,1.75
2022-12-28T11:08:24.048Z,1.30
2022-12-28T11:10:57.843Z,1.63
2022-12-28T11:13:24.511Z,1.90
2022-12-28T11:15:51.045Z,2.88
2022-12-28T11:18:19.601Z,1.83
2022-12-28T11:20:49.353Z,2.15
2022-12-28T11:23:22.458Z,2.42
2022-12-28T11:25:49.310Z,2.78
2022-12-28T11:28:22.099Z,1.20
2022-12-28T11:30:50.768Z,1.45
2022-12-28T11:33:44.601Z,1.55
2022-12-28T11:36:20.934Z,2.22
2022-12-28T11:38:50.583Z,1.02
2022-12-28T11:41:33.738Z,1.50
2022-12-28T11:44:04.454Z,1.88
2022-12-28T11:46:31.088Z,1.25
2022-12-28T11:49:21.977Z,1.42
2022-12-28T11:52:17.345Z,0.80
2022-12-28T11:55:02.783Z,1.23
2022-12-28T11:57:43.560Z,1.38
2022-12-28T12:00:39.339Z,1.33
2022-12-28T12:03:05.952Z,0.50
2022-12-28T12:05:36.381Z,1.67
2022-12-28T12:08:12.512Z,1.10
2022-12-28T12:10:41.605Z,1.42
2022-12-28T12:13:26.557Z,1.20
2022-12-28T12:16:06.825Z,1.13
2022-12-28T12:18:55.743Z,1.17
2022-12-28T12:21:39.595Z,0.88
2022-12-28T12:24:18.838Z,1.27
2022-12-28T12:26:52.599Z,0.90
2022-12-28T12:29:38.935Z,1.48
2022-12-28T12:32:21.294Z,0.80
2022-12-28T12:34:53.161Z,0.95
2022-12-28T12:37:45.547Z,1.10
2022-12-28T12:40:43.975Z,1.00
2022-12-28T12:43:18.269Z,0.85
2022-12-28T12:45:57.559Z,1.42
2022-12-28T12:48:33.136Z,0.98
2022-12-28T12:51:11.743Z,1.20
2022-12-28T12:53:51.343Z,0.90
2022-12-28T12:56:40.219Z,1.00
2022-12-28T12:59:42.046Z,1.00
2022-12-28T13:02:11.811Z,0.40
2022-12-28T13:04:41.906Z,1.23
2022-12-28T13:07:21.990Z,1.17
2022-12-28T13:09:50.496Z,1.38
2022-12-28T13:12:19.049Z,1.85
2022-12-28T13:14:47.914Z,2.55
2022-12-28T13:17:22.026Z,1.77
2022-12-28T13:19:48.698Z,1.17
2022-12-28T13:22:27.697Z,1.77
2022-12-28T13:24:54.293Z,1.80
2022-12-28T13:27:22.484Z,0.95
2022-12-28T13:29:53.581Z,1.02
2022-12-28T13:32:24.273Z,1.48
2022-12-28T13:34:50.871Z,1.60
2022-12-28T13:37:18.964Z,1.90
2022-12-28T13:39:47.809Z,1.20
2022-12-28T13:42:18.598Z,1.60
2022-12-28T13:44:55.888Z,1.75
2022-12-28T13:47:32.742Z,1.30
2022-12-28T13:50:02.717Z,1.48
2022-12-28T13:52:53.180Z,1.80
2022-12-28T13:55:28.857Z,0.93
2022-12-28T13:58:00.053Z,1.25
2022-12-28T14:00:28.659Z,1.95
2022-12-28T14:02:56.856Z,2.50
2022-12-28T14:05:29.502Z,1.63
2022-12-28T14:07:58.754Z,1.63
2022-12-28T14:10:26.509Z,1.60
2022-12-28T14:12:53.740Z,1.75
2022-12-28T14:15:20.647Z,1.92
2022-12-28T14:17:49.648Z,1.98
2022-12-28T14:20:16.849Z,1.38
2022-12-28T14:22:43.614Z,2.17
2022-12-28T14:25:18.830Z,1.95
2022-12-28T14:28:06.102Z,1.38
2022-12-28T14:30:42.789Z,1.92
2022-12-28T14:36:07.897Z,2.10
2022-12-28T14:38:39.851Z,1.45
2022-12-28T14:41:06.952Z,1.48
2022-12-28T14:43:37.136Z,1.92
2022-12-28T14:46:31.078Z,1.35
2022-12-28T14:48:57.757Z,0.73
2022-12-28T14:51:27.661Z,0.77
2022-12-28T14:54:17.635Z,1.15
2022-12-28T14:57:01.108Z,0.38
2022-12-28T14:59:33.760Z,0.50
2022-12-28T15:00:15.987Z,0.85
2022-12-28T15:02:00.481Z,1.20
2022-12-28T15:04:41.423Z,0.70
2022-12-28T15:07:10.060Z,0.82
2022-12-28T15:09:36.662Z,0.85
2022-12-28T15:12:20.499Z,1.20
2022-12-28T15:14:47.894Z,0.70
2022-12-28T15:17:15.645Z,0.90
2022-12-28T15:19:43.160Z,0.50
2022-12-28T15:22:09.738Z,0.70
2022-12-28T15:24:36.395Z,0.98
2022-12-28T15:27:03.601Z,0.82
2022-12-28T15:32:16.906Z,0.60
2022-12-28T15:34:43.820Z,1.08
2022-12-28T15:37:10.389Z,0.82
2022-12-28T15:39:37.111Z,0.68
2022-12-28T15:42:03.707Z,0.85
2022-12-28T15:44:30.458Z,0.63
2022-12-28T15:46:57.203Z,0.98
2022-12-28T15:49:23.843Z,0.90
2022-12-28T15:51:50.945Z,0.77
2022-12-28T15:54:18.670Z,0.90
2022-12-28T15:56:52.470Z,0.70
2022-12-28T15:59:19.408Z,1.42
2022-12-28T16:01:47.263Z,0.65
2022-12-28T16:04:14.721Z,0.60
2022-12-28T16:06:44.664Z,1.33
2022-12-28T16:09:12.615Z,0.93
2022-12-28T16:11:39.548Z,0.65
2022-12-28T16:14:08.755Z,0.35
2022-12-28T16:16:38.482Z,0.52
2022-12-28T16:19:06.981Z,1.08
2022-12-28T16:21:33.636Z,0.32
2022-12-28T16:24:00.844Z,0.85
2022-12-28T16:26:28.091Z,1.15
2022-12-28T16:28:54.715Z,1.08
2022-12-28T16:31:25.226Z,0.45
2022-12-28T16:33:59.184Z,1.00
2022-12-28T16:36:26.772Z,0.80
2022-12-28T16:38:53.839Z,0.45
2022-12-28T16:41:21.374Z,0.93
2022-12-28T16:43:49.198Z,0.47
2022-12-28T16:46:16.157Z,0.60
2022-12-28T16:48:42.864Z,0.50
2022-12-28T16:51:09.947Z,0.50
2022-12-28T16:53:37.519Z,0.52
2022-12-28T16:56:05.467Z,0.30
2022-12-28T16:58:33.359Z,1.10
2022-12-28T17:01:08.937Z,0.90
2022-12-28T17:03:37.250Z,1.15
2022-12-28T17:06:04.799Z,0.50
2022-12-28T17:08:33.580Z,0.65
2022-12-28T17:11:00.201Z,1.20
2022-12-28T17:13:26.793Z,1.02
2022-12-28T17:15:53.532Z,0.40
2022-12-28T17:18:20.181Z,1.92
2022-12-28T17:20:46.865Z,1.60
2022-12-28T17:23:13.624Z,1.10
2022-12-28T17:25:40.185Z,1.27
2022-12-28T17:28:06.983Z,1.58
2022-12-28T17:30:34.118Z,1.98
2022-12-28T17:33:01.060Z,0.82
2022-12-28T17:35:27.774Z,1.67
2022-12-28T17:37:54.326Z,1.55
2022-12-28T17:40:21.049Z,2.10
2022-12-28T17:42:47.849Z,2.15
2022-12-28T17:45:14.535Z,1.13
2022-12-28T17:47:41.115Z,1.98
2022-12-28T17:50:08.407Z,2.10
2022-12-28T17:52:34.998Z,1.67
2022-12-28T17:55:02.933Z,1.73
2022-12-28T17:57:31.792Z,2.22
2022-12-28T18:00:02.181Z,1.67
2022-12-28T18:02:28.834Z,1.55
2022-12-28T18:04:55.831Z,2.17
2022-12-28T18:07:22.416Z,1.48
2022-12-28T18:09:49.008Z,1.90
2022-12-28T18:12:16.457Z,1.67
2022-12-28T18:14:43.234Z,2.03
2022-12-28T18:17:09.821Z,1.80
2022-12-28T18:19:36.448Z,1.55
2022-12-28T18:22:03.315Z,1.88
2022-12-28T18:24:29.858Z,2.08
2022-12-28T18:26:56.442Z,2.40
2022-12-28T18:29:22.961Z,1.63
2022-12-28T18:31:49.543Z,1.38
2022-12-28T18:34:16.088Z,2.15
2022-12-28T18:36:43.464Z,1.98
2022-12-28T18:39:10.159Z,1.17
2022-12-28T18:41:36.934Z,2.17
2022-12-28T18:44:04.995Z,1.73
2022-12-28T18:46:32.312Z,1.23
2022-12-28T18:49:00.418Z,1.42
2022-12-28T18:51:27.125Z,1.85
2022-12-28T18:53:53.658Z,1.25
2022-12-28T18:56:21.264Z,1.23
2022-12-28T18:58:55.940Z,1.27
2022-12-28T19:04:15.807Z,1.50
2022-12-28T19:06:43.610Z,2.30
2022-12-28T19:09:11.259Z,1.83
2022-12-28T19:11:38.851Z,1.30
2022-12-28T19:14:07.379Z,1.08
2022-12-28T19:16:34.510Z,0.93
2022-12-28T19:19:01.450Z,1.00
2022-12-28T19:21:33.747Z,1.08
2022-12-28T19:24:06.789Z,1.20
2022-12-28T19:26:35.458Z,0.80
2022-12-28T19:29:03.455Z,1.80
2022-12-28T19:31:31.147Z,0.88
2022-12-28T19:33:57.872Z,1.25
2022-12-28T19:36:24.490Z,1.45
2022-12-28T19:38:53.964Z,0.65
2022-12-28T19:41:21.182Z,0.68
2022-12-28T19:43:47.802Z,1.00
2022-12-28T19:46:18.000Z,0.75
2022-12-28T19:48:44.756Z,1.45
2022-12-28T19:51:12.248Z,0.75
2022-12-28T19:53:38.911Z,1.23
2022-12-28T19:56:08.178Z,1.10
2022-12-28T19:58:35.986Z,1.25
2022-12-28T20:01:07.887Z,1.20
2022-12-28T20:03:34.746Z,1.13
2022-12-28T20:06:12.473Z,1.30
2022-12-28T20:08:39.670Z,0.77
2022-12-28T20:11:06.604Z,1.50
2022-12-28T20:13:33.840Z,1.30
2022-12-28T20:16:00.746Z,1.10
2022-12-28T20:18:27.419Z,0.95
2022-12-28T20:23:47.996Z,1.48
2022-12-28T20:26:15.360Z,0.70
2022-12-28T20:28:42.119Z,1.05
2022-12-28T20:31:14.141Z,1.25
2022-12-28T20:33:42.122Z,0.95
2022-12-28T20:36:13.477Z,1.10
2022-12-28T20:38:40.677Z,0.50
2022-12-28T20:41:34.862Z,0.98
2022-12-28T20:44:04.093Z,0.40
2022-12-28T20:46:30.803Z,0.80
2022-12-28T20:48:58.951Z,1.15
2022-12-28T20:51:26.545Z,1.33
2022-12-28T20:53:53.512Z,0.75
2022-12-28T20:56:20.212Z,0.75
2022-12-28T20:58:47.087Z,1.15
2022-12-28T21:01:15.971Z,0.60
2022-12-28T21:03:44.177Z,0.77
2022-12-28T21:06:10.843Z,0.93
2022-12-28T21:08:37.630Z,0.73
2022-12-28T21:11:04.631Z,0.73
2022-12-28T21:13:31.820Z,0.73
2022-12-28T21:15:58.584Z,0.70
2022-12-28T21:18:25.420Z,0.90
2022-12-28T21:21:01.193Z,1.25
2022-12-28T21:23:29.514Z,1.23
2022-12-28T21:26:07.396Z,0.63
2022-12-28T21:28:34.632Z,1.23
2022-12-28T21:31:03.569Z,2.75
2022-12-28T21:33:30.473Z,1.58
2022-12-28T21:36:01.937Z,1.95
2022-12-28T21:38:29.574Z,0.80
2022-12-28T21:41:39.230Z,1.67
2022-12-28T21:44:07.324Z,0.77
2022-12-28T21:46:34.077Z,1.00
2022-12-28T21:49:03.313Z,0.50
2022-12-28T21:51:34.918Z,0.73
2022-12-28T21:54:12.544Z,0.50
2022-12-28T21:56:39.605Z,0.90
2022-12-28T21:59:07.226Z,1.02
2022-12-28T22:01:53.007Z,0.50
2022-12-28T22:04:40.395Z,0.73
2022-12-28T22:07:09.229Z,0.73
2022-12-28T22:09:55.289Z,0.70
2022-12-28T22:12:35.158Z,0.70
2022-12-28T22:15:29.588Z,1.13
2022-12-28T22:17:58.730Z,0.77
2022-12-28T22:20:26.000Z,0.47
2022-12-28T22:22:56.159Z,0.60
2022-12-28T22:25:22.934Z,0.77
2022-12-28T22:27:49.557Z,0.80
2022-12-28T22:30:16.281Z,0.70
2022-12-28T22:32:42.943Z,0.52
2022-12-28T22:35:10.323Z,0.98
2022-12-28T22:37:37.377Z,0.43
2022-12-28T22:40:04.657Z,0.88
2022-12-28T22:42:31.834Z,0.52
2022-12-28T22:44:58.427Z,0.57
2022-12-28T22:47:27.018Z,0.50
2022-12-28T22:49:53.877Z,0.50
2022-12-28T22:52:20.655Z,0.95
2022-12-28T22:54:47.249Z,0.85
2022-12-28T22:57:14.031Z,0.68
2022-12-28T22:59:40.646Z,0.98
2022-12-28T23:02:07.419Z,0.73
2022-12-28T23:04:34.189Z,1.33
2022-12-28T23:07:03.893Z,0.85
2022-12-28T23:09:31.601Z,0.63
2022-12-28T23:11:58.731Z,0.73
2022-12-28T23:14:44.546Z,1.10
2022-12-28T23:17:13.504Z,1.08
2022-12-28T23:20:00.104Z,0.68
2022-12-28T23:22:47.601Z,0.73
2022-12-28T23:25:35.846Z,0.88
2022-12-28T23:28:06.010Z,0.80
2022-12-28T23:30:32.711Z,1.10
2022-12-28T23:32:59.772Z,1.10
2022-12-28T23:35:26.819Z,0.82
2022-12-28T23:37:53.626Z,0.65
2022-12-28T23:40:22.369Z,1.15
2022-12-28T23:42:49.820Z,0.95
2022-12-28T23:45:18.008Z,0.90
2022-12-28T23:47:45.355Z,0.98
2022-12-28T23:50:13.971Z,1.48
2022-12-28T23:52:40.978Z,1.20
2022-12-28T23:55:08.354Z,0.85
2022-12-28T23:57:34.874Z,0.85
